sensor_id;sensor_type;location;lat;lon;timestamp;P1;durP1;ratioP1;P2;durP2;ratioP2
17451;SDS011;8843;48.838;9.324;2022-07-01T00:00:15;1.40;;;1.00;;
17451;SDS011;8843;48.838;9.324;2022-07-01T00:02:42;2.33;;;1.23;;
17451;SDS011;8843;48.838;9.324;2022-07-01T00:05:09;1.90;;;1.17;;
17451;SDS011;8843;48.838;9.324;2022-07-01T00:07:36;2.13;;;1.10;;
17451;SDS011;8843;48.838;9.324;2022-07-01T00:10:03;1.60;;;1.00;;
17451;SDS011;8843;48.838;9.324;2022-07-01T00:12:32;1.57;;;1.00;;
17451;SDS011;8843;48.838;9.324;2022-07-01T00:14:59;3.03;;;1.00;;
17451;SDS011;8843;48.838;9.324;2022-07-01T00:17:26;1.10;;;1.00;;
17451;SDS011;8843;48.838;9.324;2022-07-01T00:19:53;1.97;;;1.20;;
17451;SDS011;8843;48.838;9.324;2022-07-01T00:22:20;1.80;;;1.10;;
17451;SDS011;8843;48.838;9.324;2022-07-01T00:24:47;1.90;;;1.20;;
17451;SDS011;8843;48.838;9.324;2022-07-01T00:27:14;3.10;;;1.07;;
17451;SDS011;8843;48.838;9.324;2022-07-01T00:29:42;1.20;;;1.10;;
17451;SDS011;8843;48.838;9.324;2022-07-01T00:32:09;1.17;;;0.90;;
17451;SDS011;8843;48.838;9.324;2022-07-01T00:34:36;2.10;;;1.20;;
17451;SDS011;8843;48.838;9.324;2022-07-01T00:37:03;1.33;;;1.23;;
17451;SDS011;8843;48.838;9.324;2022-07-01T00:39:30;2.33;;;0.90;;
17451;SDS011;8843;48.838;9.324;2022-07-01T00:41:59;2.40;;;1.07;;
17451;SDS011;8843;48.838;9.324;2022-07-01T00:44:26;3.30;;;1.57;;
17451;SDS011;8843;48.838;9.324;2022-07-01T00:46:56;1.07;;;0.80;;
17451;SDS011;8843;48.838;9.324;2022-07-01T00:49:25;1.10;;;1.00;;
17451;SDS011;8843;48.838;9.324;2022-07-01T00:51:52;2.73;;;1.03;;
17451;SDS011;8843;48.838;9.324;2022-07-01T00:54:20;2.23;;;1.10;;
17451;SDS011;8843;48.838;9.324;2022-07-01T00:56:47;1.20;;;0.97;;
17451;SDS011;8843;48.838;9.324;2022-07-01T00:59:14;0.93;;;0.87;;
17451;SDS011;8843;48.838;9.324;2022-07-01T01:01:41;1.67;;;1.17;;
17451;SDS011;8843;48.838;9.324;2022-07-01T01:04:10;0.90;;;0.90;;
17451;SDS011;8843;48.838;9.324;2022-07-01T01:06:37;1.57;;;1.10;;
17451;SDS011;8843;48.838;9.324;2022-07-01T01:09:04;2.70;;;1.10;;
17451;SDS011;8843;48.838;9.324;2022-07-01T01:11:30;1.63;;;1.43;;
17451;SDS011;8843;48.838;9.324;2022-07-01T01:13:58;1.27;;;0.90;;
17451;SDS011;8843;48.838;9.324;2022-07-01T01:16:25;1.30;;;0.93;;
17451;SDS011;8843;48.838;9.324;2022-07-01T01:18:52;2.10;;;1.13;;
17451;SDS011;8843;48.838;9.324;2022-07-01T01:21:20;3.07;;;1.30;;
17451;SDS011;8843;48.838;9.324;2022-07-01T01:23:47;1.73;;;0.90;;
17451;SDS011;8843;48.838;9.324;2022-07-01T01:26:18;0.93;;;0.93;;
17451;SDS011;8843;48.838;9.324;2022-07-01T01:28:46;1.50;;;0.80;;
17451;SDS011;8843;48.838;9.324;2022-07-01T01:31:15;0.80;;;0.67;;
17451;SDS011;8843;48.838;9.324;2022-07-01T01:33:43;1.33;;;1.00;;
17451;SDS011;8843;48.838;9.324;2022-07-01T01:36:10;1.17;;;0.87;;
17451;SDS011;8843;48.838;9.324;2022-07-01T01:38:39;0.77;;;0.77;;
17451;SDS011;8843;48.838;9.324;2022-07-01T01:41:06;1.57;;;0.90;;
17451;SDS011;8843;48.838;9.324;2022-07-01T01:43:34;3.00;;;1.00;;
17451;SDS011;8843;48.838;9.324;2022-07-01T01:46:01;2.83;;;0.90;;
17451;SDS011;8843;48.838;9.324;2022-07-01T01:48:29;1.13;;;0.80;;
17451;SDS011;8843;48.838;9.324;2022-07-01T01:50:56;0.97;;;0.93;;
17451;SDS011;8843;48.838;9.324;2022-07-01T01:53:23;1.33;;;0.90;;
17451;SDS011;8843;48.838;9.324;2022-07-01T01:55:52;4.67;;;1.90;;
17451;SDS011;8843;48.838;9.324;2022-07-01T01:58:19;1.03;;;0.77;;
17451;SDS011;8843;48.838;9.324;2022-07-01T02:00:46;1.23;;;1.00;;
17451;SDS011;8843;48.838;9.324;2022-07-01T02:03:13;1.13;;;0.70;;
17451;SDS011;8843;48.838;9.324;2022-07-01T02:05:40;3.23;;;0.80;;
17451;SDS011;8843;48.838;9.324;2022-07-01T02:08:07;0.87;;;0.87;;
17451;SDS011;8843;48.838;9.324;2022-07-01T02:10:34;0.70;;;0.70;;
17451;SDS011;8843;48.838;9.324;2022-07-01T02:13:02;0.80;;;0.80;;
17451;SDS011;8843;48.838;9.324;2022-07-01T02:15:29;1.30;;;0.63;;
17451;SDS011;8843;48.838;9.324;2022-07-01T02:17:56;3.80;;;0.80;;
17451;SDS011;8843;48.838;9.324;2022-07-01T02:20:23;1.27;;;1.17;;
17451;SDS011;8843;48.838;9.324;2022-07-01T02:22:50;1.90;;;0.80;;
17451;SDS011;8843;48.838;9.324;2022-07-01T02:25:18;1.37;;;0.90;;
17451;SDS011;8843;48.838;9.324;2022-07-01T02:27:45;3.00;;;1.00;;
17451;SDS011;8843;48.838;9.324;2022-07-01T02:30:13;1.63;;;0.80;;
17451;SDS011;8843;48.838;9.324;2022-07-01T02:32:40;2.23;;;0.80;;
17451;SDS011;8843;48.838;9.324;2022-07-01T02:35:08;0.87;;;0.87;;
17451;SDS011;8843;48.838;9.324;2022-07-01T02:37:35;1.57;;;0.80;;
17451;SDS011;8843;48.838;9.324;2022-07-01T02:40:03;1.27;;;0.90;;
17451;SDS011;8843;48.838;9.324;2022-07-01T02:42:30;1.50;;;0.87;;
17451;SDS011;8843;48.838;9.324;2022-07-01T02:45:00;0.90;;;0.70;;
17451;SDS011;8843;48.838;9.324;2022-07-01T02:47:33;1.20;;;1.00;;
17451;SDS011;8843;48.838;9.324;2022-07-01T02:50:00;0.80;;;0.80;;
17451;SDS011;8843;48.838;9.324;2022-07-01T02:52:28;1.40;;;0.60;;
17451;SDS011;8843;48.838;9.324;2022-07-01T02:54:55;1.30;;;0.70;;
17451;SDS011;8843;48.838;9.324;2022-07-01T02:57:22;0.80;;;0.80;;
17451;SDS011;8843;48.838;9.324;2022-07-01T02:59:49;0.60;;;0.60;;
17451;SDS011;8843;48.838;9.324;2022-07-01T03:02:17;2.07;;;0.90;;
17451;SDS011;8843;48.838;9.324;2022-07-01T03:04:46;0.70;;;0.70;;
17451;SDS011;8843;48.838;9.324;2022-07-01T03:07:13;0.70;;;0.70;;
17451;SDS011;8843;48.838;9.324;2022-07-01T03:09:40;0.93;;;0.70;;
17451;SDS011;8843;48.838;9.324;2022-07-01T03:12:08;0.70;;;0.70;;
17451;SDS011;8843;48.838;9.324;2022-07-01T03:14:52;0.60;;;0.60;;
17451;SDS011;8843;48.838;9.324;2022-07-01T03:17:19;1.53;;;0.70;;
17451;SDS011;8843;48.838;9.324;2022-07-01T03:19:49;1.00;;;0.80;;
17451;SDS011;8843;48.838;9.324;2022-07-01T03:22:16;0.70;;;0.70;;
17451;SDS011;8843;48.838;9.324;2022-07-01T03:24:43;1.87;;;1.00;;
17451;SDS011;8843;48.838;9.324;2022-07-01T03:27:10;5.30;;;1.10;;
17451;SDS011;8843;48.838;9.324;2022-07-01T03:29:37;1.93;;;0.80;;
17451;SDS011;8843;48.838;9.324;2022-07-01T03:32:04;0.83;;;0.83;;
17451;SDS011;8843;48.838;9.324;2022-07-01T03:34:33;0.70;;;0.70;;
17451;SDS011;8843;48.838;9.324;2022-07-01T03:37:01;0.77;;;0.73;;
17451;SDS011;8843;48.838;9.324;2022-07-01T03:39:28;1.83;;;0.77;;
17451;SDS011;8843;48.838;9.324;2022-07-01T03:41:55;0.53;;;0.50;;
17451;SDS011;8843;48.838;9.324;2022-07-01T03:44:22;0.60;;;0.60;;
17451;SDS011;8843;48.838;9.324;2022-07-01T03:46:49;1.90;;;0.80;;
17451;SDS011;8843;48.838;9.324;2022-07-01T03:49:16;0.70;;;0.70;;
17451;SDS011;8843;48.838;9.324;2022-07-01T03:51:43;0.83;;;0.83;;
17451;SDS011;8843;48.838;9.324;2022-07-01T03:54:11;1.13;;;0.67;;
17451;SDS011;8843;48.838;9.324;2022-07-01T03:56:56;1.60;;;0.70;;
17451;SDS011;8843;48.838;9.324;2022-07-01T03:59:24;0.77;;;0.67;;
17451;SDS011;8843;48.838;9.324;2022-07-01T04:01:51;1.23;;;0.70;;
17451;SDS011;8843;48.838;9.324;2022-07-01T04:04:18;0.60;;;0.60;;
17451;SDS011;8843;48.838;9.324;2022-07-01T04:06:45;1.30;;;1.20;;
17451;SDS011;8843;48.838;9.324;2022-07-01T04:09:15;0.70;;;0.70;;
17451;SDS011;8843;48.838;9.324;2022-07-01T04:11:43;0.80;;;0.80;;
17451;SDS011;8843;48.838;9.324;2022-07-01T04:14:11;1.60;;;1.50;;
17451;SDS011;8843;48.838;9.324;2022-07-01T04:16:39;1.37;;;1.27;;
17451;SDS011;8843;48.838;9.324;2022-07-01T04:19:06;0.80;;;0.80;;
17451;SDS011;8843;48.838;9.324;2022-07-01T04:21:34;1.00;;;0.90;;
17451;SDS011;8843;48.838;9.324;2022-07-01T04:24:21;1.07;;;1.00;;
17451;SDS011;8843;48.838;9.324;2022-07-01T04:26:49;1.37;;;1.20;;
17451;SDS011;8843;48.838;9.324;2022-07-01T04:29:16;2.50;;;0.83;;
17451;SDS011;8843;48.838;9.324;2022-07-01T04:31:43;1.70;;;0.80;;
17451;SDS011;8843;48.838;9.324;2022-07-01T04:34:10;0.80;;;0.80;;
17451;SDS011;8843;48.838;9.324;2022-07-01T04:36:38;0.90;;;0.90;;
17451;SDS011;8843;48.838;9.324;2022-07-01T04:39:05;1.07;;;1.00;;
17451;SDS011;8843;48.838;9.324;2022-07-01T04:41:34;0.90;;;0.83;;
17451;SDS011;8843;48.838;9.324;2022-07-01T04:44:18;2.83;;;1.00;;
17451;SDS011;8843;48.838;9.324;2022-07-01T04:46:45;1.80;;;1.00;;
17451;SDS011;8843;48.838;9.324;2022-07-01T04:49:12;1.07;;;1.07;;
17451;SDS011;8843;48.838;9.324;2022-07-01T04:51:39;1.43;;;1.00;;
17451;SDS011;8843;48.838;9.324;2022-07-01T04:54:06;2.27;;;1.10;;
17451;SDS011;8843;48.838;9.324;2022-07-01T04:56:36;1.17;;;0.80;;
17451;SDS011;8843;48.838;9.324;2022-07-01T04:59:04;1.20;;;0.90;;
17451;SDS011;8843;48.838;9.324;2022-07-01T05:01:31;1.00;;;1.00;;
17451;SDS011;8843;48.838;9.324;2022-07-01T05:03:58;1.00;;;1.00;;
17451;SDS011;8843;48.838;9.324;2022-07-01T05:06:25;1.00;;;0.90;;
17451;SDS011;8843;48.838;9.324;2022-07-01T05:08:52;2.10;;;0.80;;
17451;SDS011;8843;48.838;9.324;2022-07-01T05:11:20;1.50;;;1.00;;
17451;SDS011;8843;48.838;9.324;2022-07-01T05:13:49;1.00;;;0.80;;
17451;SDS011;8843;48.838;9.324;2022-07-01T05:16:16;1.20;;;1.10;;
17451;SDS011;8843;48.838;9.324;2022-07-01T05:18:45;1.17;;;1.00;;
17451;SDS011;8843;48.838;9.324;2022-07-01T05:21:38;1.20;;;1.10;;
17451;SDS011;8843;48.838;9.324;2022-07-01T05:24:23;2.03;;;1.27;;
17451;SDS011;8843;48.838;9.324;2022-07-01T05:26:55;1.67;;;1.23;;
17451;SDS011;8843;48.838;9.324;2022-07-01T05:29:24;1.57;;;1.20;;
17451;SDS011;8843;48.838;9.324;2022-07-01T05:31:51;1.30;;;1.20;;
17451;SDS011;8843;48.838;9.324;2022-07-01T05:34:18;2.33;;;2.03;;
17451;SDS011;8843;48.838;9.324;2022-07-01T05:36:45;2.77;;;1.70;;
17451;SDS011;8843;48.838;9.324;2022-07-01T05:39:12;1.40;;;1.30;;
17451;SDS011;8843;48.838;9.324;2022-07-01T05:41:39;1.70;;;1.40;;
17451;SDS011;8843;48.838;9.324;2022-07-01T05:44:07;1.57;;;1.30;;
17451;SDS011;8843;48.838;9.324;2022-07-01T05:46:35;1.60;;;1.30;;
17451;SDS011;8843;48.838;9.324;2022-07-01T05:49:02;1.77;;;1.20;;
17451;SDS011;8843;48.838;9.324;2022-07-01T05:51:29;1.63;;;1.27;;
17451;SDS011;8843;48.838;9.324;2022-07-01T05:53:56;2.17;;;1.20;;
17451;SDS011;8843;48.838;9.324;2022-07-01T05:56:23;1.43;;;1.30;;
17451;SDS011;8843;48.838;9.324;2022-07-01T05:58:51;1.30;;;1.20;;
17451;SDS011;8843;48.838;9.324;2022-07-01T06:01:18;1.47;;;1.13;;
17451;SDS011;8843;48.838;9.324;2022-07-01T06:03:46;1.40;;;1.30;;
17451;SDS011;8843;48.838;9.324;2022-07-01T06:06:13;1.30;;;1.23;;
17451;SDS011;8843;48.838;9.324;2022-07-01T06:08:40;1.53;;;1.20;;
17451;SDS011;8843;48.838;9.324;2022-07-01T06:11:07;3.77;;;1.30;;
17451;SDS011;8843;48.838;9.324;2022-07-01T06:13:34;1.30;;;1.30;;
17451;SDS011;8843;48.838;9.324;2022-07-01T06:16:01;2.17;;;1.20;;
17451;SDS011;8843;48.838;9.324;2022-07-01T06:18:28;3.00;;;1.63;;
17451;SDS011;8843;48.838;9.324;2022-07-01T06:20:57;5.97;;;1.73;;
17451;SDS011;8843;48.838;9.324;2022-07-01T06:23:23;2.63;;;1.33;;
17451;SDS011;8843;48.838;9.324;2022-07-01T06:25:50;1.40;;;1.30;;
17451;SDS011;8843;48.838;9.324;2022-07-01T06:28:17;1.93;;;1.73;;
17451;SDS011;8843;48.838;9.324;2022-07-01T06:30:44;1.57;;;1.40;;
17451;SDS011;8843;48.838;9.324;2022-07-01T06:33:11;1.40;;;1.30;;
17451;SDS011;8843;48.838;9.324;2022-07-01T06:35:39;1.87;;;1.40;;
17451;SDS011;8843;48.838;9.324;2022-07-01T06:38:07;1.83;;;1.30;;
17451;SDS011;8843;48.838;9.324;2022-07-01T06:40:34;3.23;;;1.17;;
17451;SDS011;8843;48.838;9.324;2022-07-01T06:43:01;1.33;;;1.23;;
17451;SDS011;8843;48.838;9.324;2022-07-01T06:45:28;1.43;;;1.20;;
17451;SDS011;8843;48.838;9.324;2022-07-01T06:47:55;1.40;;;1.30;;
17451;SDS011;8843;48.838;9.324;2022-07-01T06:50:22;3.47;;;1.17;;
17451;SDS011;8843;48.838;9.324;2022-07-01T06:52:49;1.40;;;1.13;;
17451;SDS011;8843;48.838;9.324;2022-07-01T06:55:18;1.50;;;1.40;;
17451;SDS011;8843;48.838;9.324;2022-07-01T06:57:45;1.67;;;1.37;;
17451;SDS011;8843;48.838;9.324;2022-07-01T07:00:12;4.10;;;1.50;;
17451;SDS011;8843;48.838;9.324;2022-07-01T07:02:39;1.23;;;0.93;;
17451;SDS011;8843;48.838;9.324;2022-07-01T07:05:07;1.53;;;0.93;;
17451;SDS011;8843;48.838;9.324;2022-07-01T07:07:34;2.00;;;0.80;;
17451;SDS011;8843;48.838;9.324;2022-07-01T07:10:02;1.00;;;0.73;;
17451;SDS011;8843;48.838;9.324;2022-07-01T07:12:31;1.33;;;0.90;;
17451;SDS011;8843;48.838;9.324;2022-07-01T07:14:58;0.97;;;0.90;;
17451;SDS011;8843;48.838;9.324;2022-07-01T07:17:24;0.93;;;0.93;;
17451;SDS011;8843;48.838;9.324;2022-07-01T07:19:51;0.97;;;0.80;;
17451;SDS011;8843;48.838;9.324;2022-07-01T07:22:20;1.53;;;0.90;;
17451;SDS011;8843;48.838;9.324;2022-07-01T07:24:47;0.93;;;0.90;;
17451;SDS011;8843;48.838;9.324;2022-07-01T07:27:14;1.00;;;0.90;;
17451;SDS011;8843;48.838;9.324;2022-07-01T07:29:42;1.07;;;0.90;;
17451;SDS011;8843;48.838;9.324;2022-07-01T07:32:09;1.57;;;0.80;;
17451;SDS011;8843;48.838;9.324;2022-07-01T07:34:36;1.00;;;0.90;;
17451;SDS011;8843;48.838;9.324;2022-07-01T07:37:03;0.80;;;0.80;;
17451;SDS011;8843;48.838;9.324;2022-07-01T07:39:30;0.80;;;0.80;;
17451;SDS011;8843;48.838;9.324;2022-07-01T07:41:57;0.80;;;0.80;;
17451;SDS011;8843;48.838;9.324;2022-07-01T07:44:24;1.20;;;0.93;;
17451;SDS011;8843;48.838;9.324;2022-07-01T07:46:52;0.87;;;0.87;;
17451;SDS011;8843;48.838;9.324;2022-07-01T07:49:19;1.30;;;1.10;;
17451;SDS011;8843;48.838;9.324;2022-07-01T07:51:46;1.60;;;1.10;;
17451;SDS011;8843;48.838;9.324;2022-07-01T07:54:13;1.20;;;1.10;;
17451;SDS011;8843;48.838;9.324;2022-07-01T07:56:40;0.80;;;0.80;;
17451;SDS011;8843;48.838;9.324;2022-07-01T07:59:07;1.87;;;1.27;;
17451;SDS011;8843;48.838;9.324;2022-07-01T08:01:34;1.37;;;0.80;;
17451;SDS011;8843;48.838;9.324;2022-07-01T08:04:02;1.93;;;0.90;;
17451;SDS011;8843;48.838;9.324;2022-07-01T08:06:29;0.73;;;0.73;;
17451;SDS011;8843;48.838;9.324;2022-07-01T08:08:56;1.23;;;1.00;;
17451;SDS011;8843;48.838;9.324;2022-07-01T08:11:23;1.13;;;0.90;;
17451;SDS011;8843;48.838;9.324;2022-07-01T08:13:50;0.70;;;0.70;;
17451;SDS011;8843;48.838;9.324;2022-07-01T08:16:17;0.90;;;0.90;;
17451;SDS011;8843;48.838;9.324;2022-07-01T08:18:44;1.13;;;0.90;;
17451;SDS011;8843;48.838;9.324;2022-07-01T08:21:12;1.33;;;1.23;;
17451;SDS011;8843;48.838;9.324;2022-07-01T08:23:39;0.77;;;0.77;;
17451;SDS011;8843;48.838;9.324;2022-07-01T08:26:06;0.90;;;0.90;;
17451;SDS011;8843;48.838;9.324;2022-07-01T08:28:33;2.13;;;1.10;;
17451;SDS011;8843;48.838;9.324;2022-07-01T08:31:00;1.80;;;1.10;;
17451;SDS011;8843;48.838;9.324;2022-07-01T08:33:27;2.00;;;1.40;;
17451;SDS011;8843;48.838;9.324;2022-07-01T08:35:54;2.33;;;1.10;;
17451;SDS011;8843;48.838;9.324;2022-07-01T08:38:22;2.77;;;1.30;;
17451;SDS011;8843;48.838;9.324;2022-07-01T08:40:49;1.60;;;1.20;;
17451;SDS011;8843;48.838;9.324;2022-07-01T08:43:16;1.30;;;1.20;;
17451;SDS011;8843;48.838;9.324;2022-07-01T08:45:43;1.90;;;1.13;;
17451;SDS011;8843;48.838;9.324;2022-07-01T08:48:10;1.57;;;1.20;;
17451;SDS011;8843;48.838;9.324;2022-07-01T08:50:37;0.90;;;0.90;;
17451;SDS011;8843;48.838;9.324;2022-07-01T08:53:06;1.30;;;1.20;;
17451;SDS011;8843;48.838;9.324;2022-07-01T08:55:36;3.97;;;1.20;;
17451;SDS011;8843;48.838;9.324;2022-07-01T08:58:23;1.23;;;1.03;;
17451;SDS011;8843;48.838;9.324;2022-07-01T09:00:52;1.00;;;1.00;;
17451;SDS011;8843;48.838;9.324;2022-07-01T09:03:20;1.50;;;1.30;;
17451;SDS011;8843;48.838;9.324;2022-07-01T09:05:47;1.33;;;1.00;;
17451;SDS011;8843;48.838;9.324;2022-07-01T09:08:16;1.40;;;1.10;;
17451;SDS011;8843;48.838;9.324;2022-07-01T09:10:45;1.10;;;1.00;;
17451;SDS011;8843;48.838;9.324;2022-07-01T09:13:12;1.10;;;1.10;;
17451;SDS011;8843;48.838;9.324;2022-07-01T09:15:40;2.37;;;1.30;;
17451;SDS011;8843;48.838;9.324;2022-07-01T09:18:09;1.30;;;1.20;;
17451;SDS011;8843;48.838;9.324;2022-07-01T09:20:38;2.43;;;1.50;;
17451;SDS011;8843;48.838;9.324;2022-07-01T09:23:06;3.07;;;1.30;;
17451;SDS011;8843;48.838;9.324;2022-07-01T09:25:36;1.30;;;1.20;;
17451;SDS011;8843;48.838;9.324;2022-07-01T09:28:10;1.60;;;1.50;;
17451;SDS011;8843;48.838;9.324;2022-07-01T09:30:39;1.50;;;1.40;;
17451;SDS011;8843;48.838;9.324;2022-07-01T09:33:11;1.50;;;1.40;;
17451;SDS011;8843;48.838;9.324;2022-07-01T09:35:40;1.67;;;1.33;;
17451;SDS011;8843;48.838;9.324;2022-07-01T09:38:10;1.60;;;1.50;;
17451;SDS011;8843;48.838;9.324;2022-07-01T09:40:48;1.70;;;1.60;;
17451;SDS011;8843;48.838;9.324;2022-07-01T09:43:19;1.67;;;1.37;;
17451;SDS011;8843;48.838;9.324;2022-07-01T09:45:54;1.67;;;1.57;;
17451;SDS011;8843;48.838;9.324;2022-07-01T09:48:24;2.50;;;1.63;;
17451;SDS011;8843;48.838;9.324;2022-07-01T09:50:52;2.43;;;1.50;;
17451;SDS011;8843;48.838;9.324;2022-07-01T09:53:19;2.50;;;1.70;;
17451;SDS011;8843;48.838;9.324;2022-07-01T09:55:46;1.60;;;1.50;;
17451;SDS011;8843;48.838;9.324;2022-07-01T09:58:13;2.53;;;1.13;;
17451;SDS011;8843;48.838;9.324;2022-07-01T10:00:42;1.83;;;1.50;;
17451;SDS011;8843;48.838;9.324;2022-07-01T10:03:10;1.70;;;1.30;;
17451;SDS011;8843;48.838;9.324;2022-07-01T10:05:44;2.17;;;1.27;;
17451;SDS011;8843;48.838;9.324;2022-07-01T10:11:24;1.30;;;1.20;;
17451;SDS011;8843;48.838;9.324;2022-07-01T10:14:09;1.00;;;1.00;;
17451;SDS011;8843;48.838;9.324;2022-07-01T10:16:39;1.27;;;1.10;;
17451;SDS011;8843;48.838;9.324;2022-07-01T10:19:23;1.97;;;1.30;;
17451;SDS011;8843;48.838;9.324;2022-07-01T10:21:52;1.17;;;1.07;;
17451;SDS011;8843;48.838;9.324;2022-07-01T10:24:22;1.40;;;1.30;;
17451;SDS011;8843;48.838;9.324;2022-07-01T10:26:50;2.17;;;1.43;;
17451;SDS011;8843;48.838;9.324;2022-07-01T10:29:30;1.40;;;1.30;;
17451;SDS011;8843;48.838;9.324;2022-07-01T10:32:01;2.57;;;1.70;;
17451;SDS011;8843;48.838;9.324;2022-07-01T10:34:33;1.77;;;1.67;;
17451;SDS011;8843;48.838;9.324;2022-07-01T10:37:02;2.70;;;1.70;;
17451;SDS011;8843;48.838;9.324;2022-07-01T10:39:31;2.00;;;1.90;;
17451;SDS011;8843;48.838;9.324;2022-07-01T10:42:26;2.00;;;1.90;;
17451;SDS011;8843;48.838;9.324;2022-07-01T10:45:05;3.43;;;2.03;;
17451;SDS011;8843;48.838;9.324;2022-07-01T10:47:34;2.70;;;2.10;;
17451;SDS011;8843;48.838;9.324;2022-07-01T10:50:06;2.10;;;1.90;;
17451;SDS011;8843;48.838;9.324;2022-07-01T10:52:34;2.03;;;1.80;;
17451;SDS011;8843;48.838;9.324;2022-07-01T10:55:03;1.77;;;1.67;;
17451;SDS011;8843;48.838;9.324;2022-07-01T10:57:32;1.77;;;1.67;;
17451;SDS011;8843;48.838;9.324;2022-07-01T11:03:15;3.67;;;1.13;;
17451;SDS011;8843;48.838;9.324;2022-07-01T11:05:48;3.53;;;1.70;;
17451;SDS011;8843;48.838;9.324;2022-07-01T11:08:17;1.67;;;1.20;;
17451;SDS011;8843;48.838;9.324;2022-07-01T11:10:48;4.07;;;1.37;;
17451;SDS011;8843;48.838;9.324;2022-07-01T11:13:16;1.83;;;1.20;;
17451;SDS011;8843;48.838;9.324;2022-07-01T11:15:45;1.20;;;1.10;;
17451;SDS011;8843;48.838;9.324;2022-07-01T11:18:15;1.23;;;1.10;;
17451;SDS011;8843;48.838;9.324;2022-07-01T11:20:43;2.33;;;1.20;;
17451;SDS011;8843;48.838;9.324;2022-07-01T11:23:10;2.30;;;1.20;;
17451;SDS011;8843;48.838;9.324;2022-07-01T11:25:37;1.30;;;1.20;;
17451;SDS011;8843;48.838;9.324;2022-07-01T11:28:04;1.43;;;1.20;;
17451;SDS011;8843;48.838;9.324;2022-07-01T11:30:31;2.07;;;1.43;;
17451;SDS011;8843;48.838;9.324;2022-07-01T11:32:58;1.27;;;1.10;;
17451;SDS011;8843;48.838;9.324;2022-07-01T11:35:27;1.20;;;1.10;;
17451;SDS011;8843;48.838;9.324;2022-07-01T11:38:13;2.60;;;1.17;;
17451;SDS011;8843;48.838;9.324;2022-07-01T11:40:59;1.67;;;1.10;;
17451;SDS011;8843;48.838;9.324;2022-07-01T11:43:31;0.90;;;0.90;;
17451;SDS011;8843;48.838;9.324;2022-07-01T11:45:59;1.40;;;1.30;;
17451;SDS011;8843;48.838;9.324;2022-07-01T11:48:27;2.30;;;1.60;;
17451;SDS011;8843;48.838;9.324;2022-07-01T11:51:07;1.10;;;1.00;;
17451;SDS011;8843;48.838;9.324;2022-07-01T11:53:36;0.60;;;0.60;;
17451;SDS011;8843;48.838;9.324;2022-07-01T11:56:04;1.93;;;1.33;;
17451;SDS011;8843;48.838;9.324;2022-07-01T11:58:48;2.57;;;1.40;;
17451;SDS011;8843;48.838;9.324;2022-07-01T12:01:23;2.17;;;1.23;;
17451;SDS011;8843;48.838;9.324;2022-07-01T12:03:52;1.07;;;1.07;;
17451;SDS011;8843;48.838;9.324;2022-07-01T12:06:21;3.30;;;1.60;;
17451;SDS011;8843;48.838;9.324;2022-07-01T12:08:51;1.13;;;1.10;;
17451;SDS011;8843;48.838;9.324;2022-07-01T12:11:21;1.53;;;1.30;;
17451;SDS011;8843;48.838;9.324;2022-07-01T12:13:50;1.47;;;1.20;;
17451;SDS011;8843;48.838;9.324;2022-07-01T12:16:18;1.30;;;1.03;;
17451;SDS011;8843;48.838;9.324;2022-07-01T12:18:55;2.40;;;1.20;;
17451;SDS011;8843;48.838;9.324;2022-07-01T12:21:27;0.87;;;0.87;;
17451;SDS011;8843;48.838;9.324;2022-07-01T12:24:04;0.90;;;0.90;;
17451;SDS011;8843;48.838;9.324;2022-07-01T12:26:32;2.13;;;1.40;;
17451;SDS011;8843;48.838;9.324;2022-07-01T12:29:00;1.97;;;1.50;;
17451;SDS011;8843;48.838;9.324;2022-07-01T12:31:27;1.57;;;1.10;;
17451;SDS011;8843;48.838;9.324;2022-07-01T12:33:55;1.43;;;1.33;;
17451;SDS011;8843;48.838;9.324;2022-07-01T12:36:22;1.30;;;1.20;;
17451;SDS011;8843;48.838;9.324;2022-07-01T12:41:34;1.00;;;1.00;;
17451;SDS011;8843;48.838;9.324;2022-07-01T12:44:05;1.00;;;1.00;;
17451;SDS011;8843;48.838;9.324;2022-07-01T12:46:32;1.80;;;1.20;;
17451;SDS011;8843;48.838;9.324;2022-07-01T12:48:59;1.47;;;1.37;;
17451;SDS011;8843;48.838;9.324;2022-07-01T12:51:29;3.10;;;1.20;;
17451;SDS011;8843;48.838;9.324;2022-07-01T12:53:57;4.20;;;1.30;;
17451;SDS011;8843;48.838;9.324;2022-07-01T12:56:27;3.93;;;1.40;;
17451;SDS011;8843;48.838;9.324;2022-07-01T12:58:55;1.77;;;1.00;;
17451;SDS011;8843;48.838;9.324;2022-07-01T13:01:22;1.37;;;1.27;;
17451;SDS011;8843;48.838;9.324;2022-07-01T13:03:49;2.13;;;1.20;;
17451;SDS011;8843;48.838;9.324;2022-07-01T13:06:16;1.30;;;1.10;;
17451;SDS011;8843;48.838;9.324;2022-07-01T13:08:43;1.40;;;1.30;;
17451;SDS011;8843;48.838;9.324;2022-07-01T13:11:10;1.90;;;1.17;;
17451;SDS011;8843;48.838;9.324;2022-07-01T13:13:38;1.47;;;1.07;;
17451;SDS011;8843;48.838;9.324;2022-07-01T13:16:05;1.47;;;1.10;;
17451;SDS011;8843;48.838;9.324;2022-07-01T13:18:32;1.50;;;1.03;;
17451;SDS011;8843;48.838;9.324;2022-07-01T13:20:59;1.63;;;1.10;;
17451;SDS011;8843;48.838;9.324;2022-07-01T13:23:26;2.03;;;1.70;;
17451;SDS011;8843;48.838;9.324;2022-07-01T13:25:53;1.20;;;1.10;;
17451;SDS011;8843;48.838;9.324;2022-07-01T13:28:20;1.77;;;1.40;;
17451;SDS011;8843;48.838;9.324;2022-07-01T13:30:48;2.17;;;1.47;;
17451;SDS011;8843;48.838;9.324;2022-07-01T13:33:15;2.33;;;1.40;;
17451;SDS011;8843;48.838;9.324;2022-07-01T13:35:42;1.30;;;1.00;;
17451;SDS011;8843;48.838;9.324;2022-07-01T13:38:09;1.93;;;1.30;;
17451;SDS011;8843;48.838;9.324;2022-07-01T13:40:36;1.30;;;1.00;;
17451;SDS011;8843;48.838;9.324;2022-07-01T13:43:03;2.60;;;1.50;;
17451;SDS011;8843;48.838;9.324;2022-07-01T13:45:30;1.87;;;1.30;;
17451;SDS011;8843;48.838;9.324;2022-07-01T13:47:58;1.50;;;1.40;;
17451;SDS011;8843;48.838;9.324;2022-07-01T13:50:25;1.30;;;1.20;;
17451;SDS011;8843;48.838;9.324;2022-07-01T13:52:52;2.53;;;1.43;;
17451;SDS011;8843;48.838;9.324;2022-07-01T13:55:18;3.93;;;1.50;;
17451;SDS011;8843;48.838;9.324;2022-07-01T13:57:45;1.40;;;1.30;;
17451;SDS011;8843;48.838;9.324;2022-07-01T14:00:13;1.73;;;1.30;;
17451;SDS011;8843;48.838;9.324;2022-07-01T14:02:41;1.30;;;1.20;;
17451;SDS011;8843;48.838;9.324;2022-07-01T14:05:09;1.63;;;1.17;;
17451;SDS011;8843;48.838;9.324;2022-07-01T14:07:36;1.30;;;1.20;;
17451;SDS011;8843;48.838;9.324;2022-07-01T14:10:04;5.03;;;1.40;;
17451;SDS011;8843;48.838;9.324;2022-07-01T14:12:31;3.33;;;1.20;;
17451;SDS011;8843;48.838;9.324;2022-07-01T14:14:58;1.70;;;1.30;;
17451;SDS011;8843;48.838;9.324;2022-07-01T14:17:26;2.03;;;1.30;;
17451;SDS011;8843;48.838;9.324;2022-07-01T14:19:53;1.33;;;1.13;;
17451;SDS011;8843;48.838;9.324;2022-07-01T14:22:23;2.17;;;1.40;;
17451;SDS011;8843;48.838;9.324;2022-07-01T14:24:50;1.37;;;1.23;;
17451;SDS011;8843;48.838;9.324;2022-07-01T14:27:17;1.40;;;1.30;;
17451;SDS011;8843;48.838;9.324;2022-07-01T14:29:45;1.60;;;1.40;;
17451;SDS011;8843;48.838;9.324;2022-07-01T14:32:12;1.10;;;1.10;;
17451;SDS011;8843;48.838;9.324;2022-07-01T14:34:39;4.30;;;1.70;;
17451;SDS011;8843;48.838;9.324;2022-07-01T14:37:06;1.47;;;1.17;;
17451;SDS011;8843;48.838;9.324;2022-07-01T14:39:34;1.30;;;1.20;;
17451;SDS011;8843;48.838;9.324;2022-07-01T14:42:01;1.87;;;1.70;;
17451;SDS011;8843;48.838;9.324;2022-07-01T14:44:28;1.93;;;1.30;;
17451;SDS011;8843;48.838;9.324;2022-07-01T14:46:55;2.13;;;1.30;;
17451;SDS011;8843;48.838;9.324;2022-07-01T14:49:22;2.67;;;1.20;;
17451;SDS011;8843;48.838;9.324;2022-07-01T14:51:49;3.30;;;1.30;;
17451;SDS011;8843;48.838;9.324;2022-07-01T14:54:16;2.47;;;1.37;;
17451;SDS011;8843;48.838;9.324;2022-07-01T14:56:44;1.83;;;1.60;;
17451;SDS011;8843;48.838;9.324;2022-07-01T14:59:11;2.07;;;1.47;;
17451;SDS011;8843;48.838;9.324;2022-07-01T15:01:38;1.40;;;1.30;;
17451;SDS011;8843;48.838;9.324;2022-07-01T15:04:06;2.20;;;1.20;;
17451;SDS011;8843;48.838;9.324;2022-07-01T15:06:33;1.30;;;1.20;;
17451;SDS011;8843;48.838;9.324;2022-07-01T15:09:00;4.30;;;1.20;;
17451;SDS011;8843;48.838;9.324;2022-07-01T15:11:28;3.17;;;1.10;;
17451;SDS011;8843;48.838;9.324;2022-07-01T15:13:56;1.93;;;1.13;;
17451;SDS011;8843;48.838;9.324;2022-07-01T15:16:23;2.80;;;1.40;;